KMVL

Morrisville-Stowe State Airport

Morrisville, Vermont, USA
METAR KMVL 162354Z AUTO 01010KT 7SM -SN OVC030 M10/M13 A3007 RMK AO2 SLP198 P0000 60000 T11001128 11044 21111 51042
Observed Flight Rules
Dec-16 @ 23:54 UTC (40 minutes ago) Marginal Visual Flight Rules
Wind Visibility Clouds Conditions
10° at 10 knots 7 miles
  • Overcast at 3,000' AGL
  • Light Snow
Temperatures Readings Precipitation
Current -10°C / 14°F
Dewpoint -13°C / 9°F
Humidity 79%
Altimeter 30.07" Hg
Pressure 1019.8 hPa
Elevation 234
Current Rain 0.005
METAR KMVL 162354Z AUTO 01010KT 7SM -SN OVC030 M10/M13 A3007 RMK AO2 SLP198 P0000 60000 T11001128 11044 21111 51042
Observed Flight Rules
Dec-16 @ 23:54 UTC
(40 minutes ago)
MVFR
Wind Visibility
10° at 10 knots 7 miles
Clouds
  • Overcast at 3,000' AGL
Conditions
  • Light Snow
Temperature Dewpoint
-10°C / 14°F -13°C / 9°F
Humidity Altimeter Pressure
79% 30.07" Hg 1019.8 hPa
Current Rain
0.005